ADDS METAR Data INFO
IDs: Format: Raw Decoded Include TAF

Data at: 2304 UTC 21 Feb 2018

KFOA 212255Z AUTO 04007KT 4SM -DZ OVC014 03/02 A3046 RMK AO2 T00320019
KFOA 212235Z AUTO 04007KT 4SM RA OVC012 03/02 A3047 RMK AO2 T00310017
KFOA 212215Z AUTO 02009KT 5SM -DZ OVC010 03/02 A3049 RMK AO2 T00310015
KFOA 212155Z AUTO 01007KT 5SM -DZ OVC010 03/02 A3049 RMK AO2 T00310016
KFOA 212135Z AUTO 01005KT 5SM -DZ OVC010 03/02 A3049 RMK AO2 T00300016
KFOA 212115Z AUTO 01007KT 5SM BR OVC010 03/02 A3049 RMK AO2 T00310015
KFOA 212055Z AUTO 01008KT 7SM OVC010 03/01 A3049 RMK AO2 T00300011
KFOA 212035Z AUTO 02008KT 7SM OVC010 03/01 A3049 RMK AO2 T00300011
KFOA 212015Z AUTO 02007KT 10SM OVC010 03/01 A3048 RMK AO2 T00290012
KFOA 211955Z AUTO 02012G15KT 10SM OVC010 03/01 A3047 RMK AO2 T00250008
KFOA 211935Z AUTO 36014KT 5SM BR OVC010 03/01 A3047 RMK AO2 T00250009
KFOA 211915Z AUTO 36013G17KT 7SM OVC010 03/01 A3047 RMK AO2 T00250007
KFOA 211855Z AUTO 36010KT 10SM OVC010 03/01 A3048 RMK AO2 T00250007
KFOA 211835Z AUTO 35011KT 10SM OVC010 03/01 A3049 RMK AO2 T00250010
KFOA 211815Z AUTO 02008KT 10SM OVC010 02/00 A3047 RMK AO2 T00230004
KFOA 211755Z AUTO 02010KT 10SM OVC010 02/00 A3050 RMK AO2 60006 T00220002 10022 20015
KFOA 211735Z AUTO 36009G14KT 10SM OVC010 02/00 A3051 RMK AO2 T00210003
KFOA 211715Z AUTO 01010G14KT 10SM OVC010 02/00 A3050 RMK AO2 T00200004
KFOA 211655Z AUTO 35010G15KT 10SM OVC010 02/01 A3050 RMK AO2 T00200005
KFOA 211635Z AUTO 35007KT 7SM -RA OVC010 02/01 A3050 RMK AO2 T00200008
KFOA 211615Z AUTO 34011G14KT 7SM -RA BKN010 OVC014 02/01 A3050 RMK AO2 T00210007
KFOA 211555Z AUTO 35007KT 7SM -RA OVC010 02/01 A3050 RMK AO2 T00200006
KFOA 211535Z AUTO 35006KT 5SM RA OVC010 02/01 A3050 RMK AO2 T00200007
KFOA 211515Z AUTO 34009KT 5SM -RA BKN010 OVC014 02/01 A3049 RMK AO2 T00200006
KFOA 211455Z AUTO 01009G14KT 7SM -DZ BKN011 OVC014 02/00 A3048 RMK AO2 60006 T00170003
KFOA 211435Z AUTO 01007KT 7SM -RA OVC011 02/01 A3045 RMK AO2 T00160005
KFOA 211415Z AUTO 35008KT 5SM -RA OVC009 02/01 A3045 RMK AO2 T00150005
KFOA 211355Z AUTO 35007KT 4SM -RA BKN009 OVC013 02/01 A3045 RMK AO2 P0002 T00170006
KFOA 211335Z AUTO 35008KT 4SM -RA OVC009 02/01 A3043 RMK AO2 P0002 T00160005
KFOA 211315Z AUTO 35010KT 5SM -RA OVC009 02/00 A3042 RMK AO2 P0001 T00150004
KFOA 211255Z AUTO 35008G14KT 5SM -RA OVC009 02/01 A3040 RMK AO2 P0004 T00170006
KFOA 210755Z AUTO 34010KT 3SM RA BKN010 BKN034 OVC070 04/04 A3022 RMK AO2 P0021 T00400035
KFOA 210735Z AUTO 34010KT 3SM -RA SCT010 BKN060 OVC075 04/04 A3021 RMK AO2 P0016 T00400036
KFOA 210715Z AUTO 33009KT 2 1/2SM RA SCT011 BKN060 OVC075 04/04 A3022 RMK AO2 VIS 1V4 P0008 T00440040
KFOA 210655Z AUTO 32014G21KT 4SM RA BKN009 BKN028 OVC060 05/04 A3021 RMK AO2 P0017 T00450041
KFOA 210635Z AUTO 32016G19KT 5SM RA BKN009 BKN012 OVC028 05/05 A3020 RMK AO2 LTG DSNT S P0011 T00500046
KFOA 210615Z AUTO 32013G19KT 5SM RA OVC007 05/05 A3018 RMK AO2 P0005 T00530050
KFOA 210555Z AUTO 31017G24KT 7SM RA OVC007 06/06 A3015 RMK AO2 P0019 60048 T00590055 10212 20059 402390059
KFOA 201515Z AUTO 19019G23KT 10SM BKN030 22/17 A3002 RMK AO2 T02160166
KFOA 201455Z AUTO 19021G24KT 10SM BKN030 BKN050 BKN065 21/17 A3002 RMK AO2 T02090165
KFOA 201435Z AUTO 19018G28KT 7SM -RA SCT045 SCT070 BKN100 20/17 A3002 RMK AO2 LTG DSNT N AND W T02020165
KFOA 201415Z AUTO 19017G24KT 10SM VCTS SCT070 BKN080 BKN100 20/16 A3002 RMK AO2 T02040163
KFOA 201355Z AUTO 19020G25KT 10SM VCTS SCT070 BKN080 20/16 A3001 RMK AO2 LTG DSNT W AND NW T02020162
KFOA 201335Z AUTO 19020G27KT 10SM VCTS SCT026 OVC070 20/16 A3000 RMK AO2 LTG DSNT W T02020163
KFOA 201315Z AUTO 19017G24KT 10SM VCTS BKN026 OVC070 20/16 A3000 RMK AO2 T01970162
KFOA 201255Z AUTO 18017G22KT 10SM OVC026 20/16 A2999 RMK AO2 LTG DSNT N T01970161
KFOA 201235Z AUTO 18012KT 10SM BKN026 OVC065 20/16 A2999 RMK AO2 T01960162
KFOA 201215Z AUTO 20015G26KT 10SM SCT028 BKN065 20/16 A2998 RMK AO2 T02010161
KFOA 201155Z AUTO 19018G23KT 10SM SCT065 20/16 A2998 RMK AO2 LTG DSNT NW 70001 T02010161 10201 20177
KFOA 201135Z AUTO 19020G26KT 10SM CLR 20/16 A2997 RMK AO2 LTG DSNT NW T02000160
KFOA 201115Z AUTO 19017G23KT 10SM SCT030 20/16 A2997 RMK AO2 LTG DSNT W AND NW T01960160